Time;durP1;ratioP1;P1;durP2;ratioP2;P2;SDS_P1;SDS_P2;PMS_P1;PMS_P2;Temp;Humidity;BMP_temperature;BMP_pressure;BME280_temperature;BME280_humidity;BME280_pressure;Samples;Min_cycle;Max_cycle;Signal;HPM_P1;HPM_P2
2023/09/15 00:01:44;;;;;;;9.50;5.60;;;;;;;17.06;100.00;100977.77;105260;1265;71358;-51
2023/09/15 00:04:12;;;;;;;12.70;5.60;;;;;;;17.06;100.00;100964.70;105348;1264;63216;-52
2023/09/15 00:06:40;;;;;;;9.80;5.70;;;;;;;17.06;100.00;100953.55;105216;1261;71098;-50
2023/09/15 00:09:14;;;;;;;10.20;5.00;;;;;;;17.07;100.00;100944.77;105204;1262;60582;-52
2023/09/15 00:11:42;;;;;;;15.30;5.90;;;;;;;17.09;100.00;100942.07;105250;1268;59735;-51
2023/09/15 00:14:13;;;;;;;9.20;4.50;;;;;;;17.11;100.00;100935.72;105239;1262;73041;-51
2023/09/15 00:16:42;;;;;;;22.00;5.60;;;;;;;17.10;100.00;100930.87;105227;1265;63137;-52
2023/09/15 00:19:16;;;;;;;14.50;4.80;;;;;;;17.09;100.00;100923.05;105238;1260;72714;-53
2023/09/15 00:21:48;;;;;;;9.00;5.10;;;;;;;17.08;100.00;100917.88;105211;1261;60634;-52
2023/09/15 00:24:17;;;;;;;10.40;4.50;;;;;;;17.07;100.00;100921.06;105224;1261;60064;-51
2023/09/15 00:26:44;;;;;;;16.30;4.80;;;;;;;17.04;100.00;100917.85;105214;1265;72050;-52
2023/09/15 00:29:12;;;;;;;8.20;4.80;;;;;;;17.01;100.00;100915.19;105233;1262;63119;-52
2023/09/15 00:31:40;;;;;;;11.00;4.40;;;;;;;16.98;100.00;100914.26;105142;1267;70629;-52
2023/09/15 00:34:08;;;;;;;9.60;4.90;;;;;;;16.92;100.00;100921.60;105242;1261;60446;-51
2023/09/15 00:36:36;;;;;;;12.40;5.30;;;;;;;16.87;100.00;100922.81;105152;1267;59530;-50
2023/09/15 00:39:04;;;;;;;12.00;5.60;;;;;;;16.85;100.00;100923.77;105268;1267;73031;-52
2023/09/15 00:41:32;;;;;;;15.70;5.70;;;;;;;16.84;100.00;100926.42;105068;1262;63377;-51
2023/09/15 00:43:59;;;;;;;7.90;4.60;;;;;;;16.82;100.00;100930.15;105167;1263;71358;-52
2023/09/15 00:46:30;;;;;;;13.20;4.90;;;;;;;16.81;100.00;100924.45;105198;1263;60435;-51
2023/09/15 00:48:58;;;;;;;8.90;4.30;;;;;;;16.79;100.00;100919.27;105166;1264;59711;-52
2023/09/15 00:51:26;;;;;;;9.30;4.40;;;;;;;16.77;100.00;100918.98;105197;1263;71841;-52
2023/09/15 00:53:54;;;;;;;7.30;4.50;;;;;;;16.76;100.00;100914.34;105214;1262;64451;-51
2023/09/15 00:56:22;;;;;;;11.80;5.40;;;;;;;16.75;100.00;100904.77;105161;1263;71384;-51
2023/09/15 00:58:50;;;;;;;9.70;4.10;;;;;;;16.74;100.00;100901.67;105169;1263;60478;-52
2023/09/15 01:01:18;;;;;;;8.20;4.40;;;;;;;16.74;100.00;100896.82;105198;1263;59967;-53
2023/09/15 01:03:46;;;;;;;10.40;4.90;;;;;;;16.73;100.00;100890.75;105185;1262;71820;-51
2023/09/15 01:06:14;;;;;;;6.90;4.70;;;;;;;16.73;100.00;100884.50;105231;1262;63221;-52
2023/09/15 01:08:41;;;;;;;8.20;4.40;;;;;;;16.71;100.00;100883.00;105169;1268;72646;-57
2023/09/15 01:11:09;;;;;;;8.50;5.00;;;;;;;16.69;100.00;100875.75;105152;1267;60486;-53
2023/09/15 01:13:37;;;;;;;8.60;4.70;;;;;;;16.66;100.00;100870.77;105232;1266;59600;-51
2023/09/15 01:16:38;;;;;;;8.90;4.30;;;;;;;16.66;100.00;100873.73;105196;1263;73069;-52
2023/09/15 01:19:12;;;;;;;7.00;4.70;;;;;;;16.65;100.00;100872.04;105190;1263;63204;-52
2023/09/15 01:21:59;;;;;;;6.90;4.40;;;;;;;16.64;100.00;100868.41;105195;1263;71382;-53
2023/09/15 01:24:52;;;;;;;11.70;5.20;;;;;;;16.63;100.00;100868.98;105234;1263;60422;-52
2023/09/15 01:27:55;;;;;;;9.40;5.00;;;;;;;16.64;100.00;100868.41;105199;1268;60073;-52
2023/09/15 01:30:23;;;;;;;9.20;4.90;;;;;;;16.67;100.00;100862.40;104957;1267;73159;-51
2023/09/15 01:32:52;;;;;;;10.10;5.10;;;;;;;16.68;100.00;100854.38;105204;1263;63521;-51
2023/09/15 01:35:21;;;;;;;10.80;5.20;;;;;;;16.68;100.00;100853.48;105258;1261;71383;-52
2023/09/15 01:37:48;;;;;;;8.90;4.70;;;;;;;16.67;100.00;100852.30;105072;1263;60408;-52
2023/09/15 01:40:16;;;;;;;11.40;5.50;;;;;;;16.64;100.00;100848.89;105289;1263;60021;-53
2023/09/15 01:42:48;;;;;;;10.10;5.10;;;;;;;16.65;100.00;100850.80;105157;1262;71783;-53
2023/09/15 01:45:17;;;;;;;8.10;5.50;;;;;;;16.66;100.00;100849.54;105214;1263;63517;-50
2023/09/15 01:47:45;;;;;;;15.50;5.60;;;;;;;16.69;100.00;100847.54;105202;1262;71401;-53
2023/09/15 01:50:14;;;;;;;9.90;5.90;;;;;;;16.72;100.00;100850.89;105187;1268;60494;-53
2023/09/15 01:52:42;;;;;;;11.80;6.20;;;;;;;16.73;100.00;100850.66;105230;1268;59634;-52
2023/09/15 01:55:10;;;;;;;12.00;6.20;;;;;;;16.74;100.00;100847.16;105092;1262;73030;-53
2023/09/15 01:57:38;;;;;;;9.90;5.70;;;;;;;16.74;100.00;100851.35;105199;1267;64412;-53
2023/09/15 02:00:07;;;;;;;14.50;6.50;;;;;;;16.73;100.00;100850.31;105294;1259;70951;-52
2023/09/15 02:02:38;;;;;;;11.70;6.20;;;;;;;16.74;100.00;100848.03;105452;1264;60888;-53
2023/09/15 02:05:07;;;;;;;15.40;6.50;;;;;;;16.74;100.00;100853.24;105479;1262;61117;-52
2023/09/15 02:07:34;;;;;;;15.90;6.20;;;;;;;16.74;100.00;100855.00;105512;1262;71461;-53
2023/09/15 02:10:03;;;;;;;14.70;5.90;;;;;;;16.73;100.00;100849.27;105521;1259;63631;-52
2023/09/15 02:12:31;;;;;;;15.40;6.00;;;;;;;16.75;100.00;100847.45;105660;1258;72586;-52
2023/09/15 02:14:59;;;;;;;13.00;6.00;;;;;;;16.79;100.00;100844.70;105658;1253;60745;-52
2023/09/15 02:17:26;;;;;;;16.30;6.10;;;;;;;16.84;100.00;100836.48;105701;1253;59974;-52
2023/09/15 02:19:54;;;;;;;10.20;5.70;;;;;;;16.87;100.00;100836.90;105673;1253;71746;-53
2023/09/15 02:22:22;;;;;;;7.60;5.40;;;;;;;16.89;100.00;100832.98;105630;1253;63506;-53
2023/09/15 02:24:50;;;;;;;8.10;6.20;;;;;;;16.90;100.00;100826.31;105652;1258;71419;-52
2023/09/15 02:40:10;;;;;;;10.80;6.00;;;;;;;16.97;100.00;100830.92;102794;1294;601010;-52
2023/09/15 02:42:37;;;;;;;13.40;5.60;;;;;;;16.95;100.00;100826.83;105062;1270;59324;-52
2023/09/15 02:45:06;;;;;;;10.60;5.70;;;;;;;16.93;100.00;100828.96;104835;1270;59229;-52
2023/09/15 02:47:34;;;;;;;7.50;5.30;;;;;;;16.91;100.00;100824.86;105107;1264;72218;-53
2023/09/15 02:50:03;;;;;;;8.50;4.90;;;;;;;16.89;100.00;100827.21;105076;1271;63404;-51
2023/09/15 02:52:31;;;;;;;7.60;5.30;;;;;;;16.87;100.00;100824.33;104918;1279;71841;-50
2023/09/15 02:54:59;;;;;;;7.60;5.00;;;;;;;16.86;100.00;100820.73;105538;1260;233496;-52
2023/09/15 02:57:28;;;;;;;15.20;5.40;;;;;;;16.84;100.00;100818.39;105679;1255;60014;-52
2023/09/15 02:59:55;;;;;;;11.40;5.20;;;;;;;16.82;100.00;100820.53;105692;1260;72255;-51
2023/09/15 03:02:23;;;;;;;12.90;5.50;;;;;;;16.81;100.00;100819.02;105675;1260;64356;-52
2023/09/15 03:04:51;;;;;;;10.80;5.40;;;;;;;16.78;100.00;100825.02;105649;1264;71363;-52
2023/09/15 03:07:20;;;;;;;15.00;5.80;;;;;;;16.76;100.00;100834.01;105715;1260;60644;-52
2023/09/15 03:09:47;;;;;;;9.50;5.30;;;;;;;16.74;100.00;100838.95;105627;1270;59640;-51
2023/09/15 03:12:15;;;;;;;8.60;5.30;;;;;;;16.73;100.00;100840.75;105702;1262;73030;-51
2023/09/15 03:14:43;;;;;;;12.30;5.80;;;;;;;16.72;100.00;100838.35;105683;1264;62159;-51
2023/09/15 03:17:11;;;;;;;15.10;5.90;;;;;;;16.72;100.00;100840.95;105678;1258;71706;-52
2023/09/15 03:19:39;;;;;;;14.90;6.20;;;;;;;16.72;100.00;100837.11;105724;1263;60420;-53
2023/09/15 03:22:07;;;;;;;7.00;5.60;;;;;;;16.73;100.00;100842.83;105626;1256;59783;-54
2023/09/15 03:24:36;;;;;;;9.30;6.10;;;;;;;16.73;100.00;100840.39;105677;1259;73084;-54
2023/09/15 03:27:05;;;;;;;15.20;5.90;;;;;;;16.74;100.00;100839.64;105731;1260;64435;-53
2023/09/15 03:29:33;;;;;;;10.20;6.10;;;;;;;16.77;100.00;100844.41;105705;1262;71397;-52
2023/09/15 03:32:00;;;;;;;8.20;6.00;;;;;;;16.81;100.00;100843.39;105672;1256;60915;-50
2023/09/15 03:34:28;;;;;;;9.90;5.50;;;;;;;16.84;100.00;100845.91;105704;1259;59596;-51
2023/09/15 03:36:57;;;;;;;17.90;5.90;;;;;;;16.85;100.00;100844.30;105667;1256;72049;-52
2023/09/15 03:39:25;;;;;;;15.40;5.80;;;;;;;16.86;100.00;100842.35;105671;1261;64375;-52
2023/09/15 03:41:53;;;;;;;16.80;5.90;;;;;;;16.87;100.00;100848.41;105642;1258;71592;-52
2023/09/15 03:44:22;;;;;;;13.80;6.00;;;;;;;16.89;100.00;100844.81;105670;1258;61642;-50
2023/09/15 03:46:50;;;;;;;11.10;6.00;;;;;;;16.91;100.00;100842.99;105601;1261;59535;-52
2023/09/15 03:49:18;;;;;;;7.90;5.80;;;;;;;16.94;100.00;100843.78;105676;1261;73017;-51
2023/09/15 03:51:47;;;;;;;10.50;5.60;;;;;;;16.98;100.00;100844.70;105596;1262;63088;-51
2023/09/15 03:54:15;;;;;;;10.30;5.90;;;;;;;17.00;100.00;100843.23;105602;1262;71409;-53
2023/09/15 03:56:43;;;;;;;10.20;6.40;;;;;;;17.00;100.00;100846.38;105531;1263;60885;-53
2023/09/15 03:59:10;;;;;;;12.00;6.90;;;;;;;16.99;100.00;100842.92;105577;1255;59921;-51
2023/09/15 04:01:38;;;;;;;10.90;6.20;;;;;;;16.98;100.00;100844.69;105646;1255;71752;-52
2023/09/15 04:04:07;;;;;;;13.70;6.70;;;;;;;16.97;100.00;100848.55;105575;1263;63116;-52
2023/09/15 04:06:35;;;;;;;9.90;5.80;;;;;;;16.98;100.00;100856.38;105543;1264;72671;-52
2023/09/15 04:09:10;;;;;;;10.90;6.50;;;;;;;16.97;100.00;100855.17;105506;1259;61632;-51
2023/09/15 04:11:41;;;;;;;16.20;6.40;;;;;;;16.99;100.00;100859.66;105595;1263;59605;-52
2023/09/15 04:14:09;;;;;;;14.60;6.30;;;;;;;16.99;100.00;100864.88;105613;1257;73051;-52
2023/09/15 04:16:37;;;;;;;11.10;6.10;;;;;;;17.01;100.00;100871.97;105590;1262;64521;-52
2023/09/15 04:19:05;;;;;;;9.90;6.40;;;;;;;17.02;100.00;100871.74;105639;1260;71433;-52
2023/09/15 04:21:35;;;;;;;8.50;6.60;;;;;;;17.03;100.00;100866.83;105597;1258;61637;-52
2023/09/15 04:24:04;;;;;;;11.50;6.30;;;;;;;17.04;100.00;100868.88;105503;1257;60014;-52
2023/09/15 04:26:32;;;;;;;8.20;6.80;;;;;;;17.04;100.00;100865.04;105571;1258;72964;-53
2023/09/15 04:29:00;;;;;;;11.20;6.90;;;;;;;17.03;100.00;100871.16;105532;1264;63150;-52
2023/09/15 04:31:28;;;;;;;18.20;7.20;;;;;;;17.03;100.00;100876.23;105572;1257;72655;-51
2023/09/15 04:33:56;;;;;;;11.80;7.70;;;;;;;17.03;100.00;100878.67;105618;1258;60225;-52
2023/09/15 04:36:24;;;;;;;9.90;7.80;;;;;;;17.03;100.00;100879.37;105566;1255;59723;-52
2023/09/15 04:38:52;;;;;;;14.10;7.20;;;;;;;17.03;100.00;100873.07;105580;1255;71670;-52
2023/09/15 04:41:20;;;;;;;11.60;8.10;;;;;;;17.05;100.00;100863.60;105644;1257;64466;-53
2023/09/15 04:43:51;;;;;;;9.80;7.70;;;;;;;17.08;100.00;100863.66;105629;1257;71726;-52
2023/09/15 04:46:19;;;;;;;12.10;7.10;;;;;;;17.11;100.00;100863.55;105542;1261;60581;-52
2023/09/15 04:48:47;;;;;;;11.90;7.40;;;;;;;17.14;100.00;100867.11;105553;1256;59571;-52
2023/09/15 04:51:15;;;;;;;14.20;7.70;;;;;;;17.15;100.00;100872.98;105593;1257;72988;-52
2023/09/15 04:53:43;;;;;;;15.70;8.20;;;;;;;17.15;100.00;100870.88;105593;1260;64378;-53
2023/09/15 04:56:11;;;;;;;15.70;8.20;;;;;;;17.15;100.00;100867.23;105583;1260;72681;-53
2023/09/15 04:58:39;;;;;;;10.20;8.10;;;;;;;17.17;100.00;100863.48;105595;1261;61639;-52
2023/09/15 05:01:07;;;;;;;10.80;8.70;;;;;;;17.19;100.00;100869.86;105554;1264;59535;-52
2023/09/15 05:03:37;;;;;;;15.00;8.60;;;;;;;17.20;100.00;100874.88;105555;1256;71745;-51
2023/09/15 05:06:06;;;;;;;12.50;8.50;;;;;;;17.22;100.00;100874.61;105662;1261;64625;-51
2023/09/15 05:08:35;;;;;;;19.90;9.20;;;;;;;17.25;100.00;100873.64;105668;1260;72648;-51
2023/09/15 05:11:04;;;;;;;11.60;8.70;;;;;;;17.25;100.00;100871.36;105681;1259;60026;-51
2023/09/15 05:13:31;;;;;;;16.80;9.10;;;;;;;17.23;100.00;100871.79;105508;1258;60038;-51
2023/09/15 05:15:59;;;;;;;13.40;9.10;;;;;;;17.23;100.00;100874.23;105587;1257;71566;-52
2023/09/15 05:18:28;;;;;;;17.40;9.90;;;;;;;17.22;100.00;100870.27;105600;1257;64397;-52
2023/09/15 05:20:57;;;;;;;14.70;9.80;;;;;;;17.22;100.00;100871.30;105646;1260;72343;-52
2023/09/15 05:23:24;;;;;;;22.00;9.90;;;;;;;17.22;100.00;100871.80;105608;1261;60937;-51
2023/09/15 05:25:53;;;;;;;16.50;9.60;;;;;;;17.24;100.00;100873.48;105589;1257;59624;-52
2023/09/15 05:28:22;;;;;;;17.70;9.00;;;;;;;17.25;100.00;100877.46;105646;1257;72298;-52
2023/09/15 05:30:56;;;;;;;14.50;10.20;;;;;;;17.23;100.00;100879.64;105612;1257;63463;-52
2023/09/15 05:33:25;;;;;;;17.00;10.50;;;;;;;17.20;100.00;100876.98;105680;1257;70895;-52
2023/09/15 05:35:56;;;;;;;20.50;10.70;;;;;;;17.16;100.00;100878.86;105573;1257;60673;-55
2023/09/15 05:38:24;;;;;;;20.00;11.20;;;;;;;17.16;100.00;100881.85;105545;1262;59672;-55
2023/09/15 05:40:52;;;;;;;18.60;10.70;;;;;;;17.14;100.00;100874.39;105310;1260;72274;-52
2023/09/15 05:43:23;;;;;;;19.80;10.30;;;;;;;17.16;100.00;100871.73;105520;1257;63206;-54
2023/09/15 05:45:51;;;;;;;21.80;10.70;;;;;;;17.19;100.00;100872.45;105641;1260;71404;-52
2023/09/15 05:48:22;;;;;;;19.10;11.50;;;;;;;17.23;100.00;100879.45;105685;1257;60387;-51
2023/09/15 05:50:51;;;;;;;17.20;11.30;;;;;;;17.27;100.00;100874.95;105662;1260;59650;-52
2023/09/15 05:53:19;;;;;;;15.00;10.70;;;;;;;17.31;100.00;100881.98;105631;1260;73059;-51
2023/09/15 05:55:46;;;;;;;22.80;12.30;;;;;;;17.34;100.00;100880.63;105863;1258;63241;-52
2023/09/15 05:58:14;;;;;;;26.50;12.00;;;;;;;17.39;100.00;100881.27;105868;1254;71695;-52
2023/09/15 06:00:42;;;;;;;16.90;11.30;;;;;;;17.46;100.00;100879.08;105897;1256;60494;-52
2023/09/15 06:03:10;;;;;;;17.70;11.30;;;;;;;17.53;100.00;100864.11;105841;1258;59733;-53
2023/09/15 06:05:38;;;;;;;19.70;11.20;;;;;;;17.61;100.00;100857.71;105878;1251;71805;-52
2023/09/15 06:08:06;;;;;;;14.40;11.10;;;;;;;17.68;100.00;100854.81;105861;1251;64474;-52
2023/09/15 06:10:39;;;;;;;16.40;10.30;;;;;;;17.74;100.00;100857.02;105906;1251;72068;-52
2023/09/15 06:13:07;;;;;;;13.70;9.70;;;;;;;17.75;100.00;100863.94;105898;1255;60467;-52
2023/09/15 06:15:35;;;;;;;16.30;10.20;;;;;;;17.75;100.00;100863.09;105861;1251;60154;-53
2023/09/15 06:18:03;;;;;;;15.80;10.00;;;;;;;17.76;100.00;100864.77;105921;1257;72975;-53
2023/09/15 06:20:31;;;;;;;18.30;10.80;;;;;;;17.77;100.00;100869.77;105878;1257;64469;-54
2023/09/15 06:23:02;;;;;;;14.70;10.60;;;;;;;17.76;100.00;100877.15;105828;1258;71368;-53
2023/09/15 06:25:31;;;;;;;16.30;10.50;;;;;;;17.76;100.00;100884.66;105907;1254;62475;-53
2023/09/15 06:28:00;;;;;;;17.30;10.30;;;;;;;17.76;100.00;100886.23;105899;1257;60085;-52
2023/09/15 06:30:30;;;;;;;13.10;10.70;;;;;;;17.77;100.00;100887.08;105885;1251;71753;-54
2023/09/15 06:32:58;;;;;;;17.50;10.10;;;;;;;17.80;100.00;100892.52;105861;1251;63112;-52
2023/09/15 06:35:26;;;;;;;11.50;9.10;;;;;;;17.90;100.00;100894.55;105912;1254;71429;-54
2023/09/15 06:37:53;;;;;;;17.60;9.70;;;;;;;18.01;100.00;100898.48;105868;1254;59567;-56
2023/09/15 06:40:22;;;;;;;15.00;9.20;;;;;;;18.12;100.00;100903.63;105898;1257;59605;-52
2023/09/15 06:42:50;;;;;;;13.90;10.00;;;;;;;18.19;100.00;100905.40;105853;1251;72080;-53
2023/09/15 06:45:18;;;;;;;15.10;9.40;;;;;;;18.25;100.00;100911.77;105834;1257;65119;-52
2023/09/15 06:47:45;;;;;;;12.10;9.30;;;;;;;18.27;100.00;100918.88;105851;1251;72642;-52
2023/09/15 06:50:14;;;;;;;12.20;9.30;;;;;;;18.29;100.00;100927.33;105890;1254;60556;-51
2023/09/15 06:52:42;;;;;;;12.50;9.50;;;;;;;18.31;100.00;100934.39;105884;1251;60463;-52
2023/09/15 06:55:10;;;;;;;14.80;9.30;;;;;;;18.32;100.00;100941.19;105837;1251;72625;-52
2023/09/15 06:57:38;;;;;;;16.70;9.70;;;;;;;18.30;100.00;100949.45;105871;1257;64344;-51
2023/09/15 07:00:09;;;;;;;18.10;10.50;;;;;;;18.30;100.00;100954.89;105889;1253;71076;-52
2023/09/15 07:02:37;;;;;;;10.60;9.50;;;;;;;18.35;100.00;100963.57;105842;1254;61666;-52
2023/09/15 07:05:05;;;;;;;18.50;10.50;;;;;;;18.37;100.00;100967.89;105868;1257;60326;-50
2023/09/15 07:07:33;;;;;;;14.80;11.00;;;;;;;18.38;100.00;100969.22;105878;1251;72605;-51
2023/09/15 07:10:01;;;;;;;16.80;10.20;;;;;;;18.46;100.00;100973.24;105866;1254;62177;-52
2023/09/15 07:12:29;;;;;;;13.80;9.30;;;;;;;18.53;100.00;100972.08;105866;1251;72619;-52
2023/09/15 07:14:58;;;;;;;16.50;10.70;;;;;;;18.57;100.00;100978.22;105887;1256;60437;-52
2023/09/15 07:17:25;;;;;;;23.50;10.50;;;;;;;18.53;100.00;100986.56;105902;1254;60392;-52
2023/09/15 07:19:53;;;;;;;14.00;11.10;;;;;;;18.50;100.00;100994.05;105847;1251;72579;-52
2023/09/15 07:22:21;;;;;;;12.30;11.00;;;;;;;18.54;100.00;101003.68;105869;1257;63284;-51
2023/09/15 07:24:49;;;;;;;14.70;9.20;;;;;;;18.62;100.00;101007.17;105855;1251;72713;-52
2023/09/15 07:27:17;;;;;;;14.80;9.50;;;;;;;18.68;100.00;101017.22;105827;1254;60378;-51
2023/09/15 07:29:45;;;;;;;15.00;9.70;;;;;;;18.64;100.00;101030.31;105919;1254;60450;-52
2023/09/15 07:32:13;;;;;;;13.40;10.10;;;;;;;18.58;100.00;101049.11;105908;1254;74106;-51
2023/09/15 07:34:41;;;;;;;13.90;9.80;;;;;;;18.53;100.00;101058.58;105872;1251;65395;-51
2023/09/15 07:37:09;;;;;;;12.60;10.10;;;;;;;18.51;100.00;101060.23;105836;1251;71952;-52
2023/09/15 07:39:37;;;;;;;15.70;9.90;;;;;;;18.49;100.00;101058.90;105856;1257;60538;-52
2023/09/15 07:42:08;;;;;;;13.60;9.60;;;;;;;18.52;100.00;101054.75;105827;1257;60338;-51
2023/09/15 07:44:39;;;;;;;13.20;9.10;;;;;;;18.62;100.00;101051.55;105839;1253;72581;-52
2023/09/15 07:47:09;;;;;;;19.80;10.20;;;;;;;18.68;100.00;101050.06;105827;1254;63246;-52
2023/09/15 07:49:37;;;;;;;12.50;9.90;;;;;;;18.72;100.00;101046.44;105855;1254;71548;-51
2023/09/15 07:52:05;;;;;;;16.70;10.30;;;;;;;18.81;100.00;101042.17;105824;1256;61518;-53
2023/09/15 07:54:33;;;;;;;43.90;12.50;;;;;;;18.88;100.00;101048.34;105827;1253;61843;-52
2023/09/15 07:57:01;;;;;;;16.00;10.80;;;;;;;18.97;100.00;101053.23;105838;1254;73896;-54
2023/09/15 07:59:30;;;;;;;86.70;14.70;;;;;;;19.13;100.00;101058.30;105798;1253;65552;-54
2023/09/15 08:01:59;;;;;;;101.20;15.60;;;;;;;19.31;100.00;101072.38;105865;1254;72071;-52
2023/09/15 08:04:28;;;;;;;66.00;14.70;;;;;;;19.52;100.00;101084.73;105825;1254;60526;-51
2023/09/15 08:06:56;;;;;;;19.00;12.40;;;;;;;19.71;100.00;101095.23;105856;1257;60341;-51
2023/09/15 08:09:24;;;;;;;28.20;12.30;;;;;;;19.91;100.00;101114.64;105803;1257;73738;-51
2023/09/15 08:11:51;;;;;;;36.40;12.50;;;;;;;20.15;100.00;101126.46;105838;1257;64897;-51
2023/09/15 08:14:20;;;;;;;35.90;13.60;;;;;;;20.34;100.00;101153.77;105863;1257;71906;-50
2023/09/15 08:16:48;;;;;;;36.90;13.90;;;;;;;20.39;100.00;101196.80;105913;1256;60360;-52
2023/09/15 08:19:16;;;;;;;48.70;12.90;;;;;;;20.43;100.00;101236.77;105900;1257;60444;-51
2023/09/15 08:21:43;;;;;;;24.70;11.90;;;;;;;20.39;100.00;101280.27;105801;1257;72831;-52
2023/09/15 08:24:11;;;;;;;78.70;13.10;;;;;;;20.29;100.00;101313.67;105851;1257;64424;-51
2023/09/15 08:26:39;;;;;;;50.20;13.10;;;;;;;20.18;100.00;101334.28;105812;1254;73333;-50
2023/09/15 08:29:14;;;;;;;26.30;10.90;;;;;;;20.09;100.00;101358.35;105825;1253;62212;-50
2023/09/15 08:31:41;;;;;;;17.60;10.50;;;;;;;20.03;100.00;101370.70;105805;1254;60591;-50
2023/09/15 08:34:09;;;;;;;15.10;11.10;;;;;;;20.01;100.00;101373.73;105815;1255;74259;-50
2023/09/15 08:36:37;;;;;;;14.70;10.20;;;;;;;19.99;100.00;101374.38;105809;1257;63578;-52
2023/09/15 08:39:05;;;;;;;17.90;10.00;;;;;;;20.15;100.00;101366.65;105843;1257;71438;-50
2023/09/15 08:41:39;;;;;;;35.50;10.60;;;;;;;20.39;100.00;101368.94;105855;1254;62364;-52
2023/09/15 08:44:09;;;;;;;73.20;15.00;;;;;;;20.59;100.00;101382.39;105860;1260;60427;-50
2023/09/15 08:46:37;;;;;;;28.60;12.10;;;;;;;20.82;100.00;101392.05;105854;1254;72648;-51
2023/09/15 08:49:07;;;;;;;15.70;11.00;;;;;;;21.00;100.00;101403.53;105875;1254;63224;-52
2023/09/15 08:51:36;;;;;;;18.30;10.50;;;;;;;20.99;100.00;101409.16;105676;1254;71514;-50
2023/09/15 08:54:05;;;;;;;33.80;12.10;;;;;;;20.90;100.00;101403.10;105843;1254;60453;-50
2023/09/15 08:56:32;;;;;;;22.20;11.60;;;;;;;20.82;100.00;101392.41;105857;1253;61336;-51
2023/09/15 08:59:01;;;;;;;18.10;10.30;;;;;;;20.77;100.00;101386.34;105779;1254;72547;-51
2023/09/15 09:01:28;;;;;;;33.00;11.50;;;;;;;20.78;100.00;101389.42;105866;1254;65382;-51
2023/09/15 09:03:57;;;;;;;18.80;10.80;;;;;;;20.82;100.00;101391.73;105683;1261;71159;-52
2023/09/15 09:06:25;;;;;;;21.70;11.30;;;;;;;20.83;100.00;101379.05;105840;1257;60599;-53
2023/09/15 09:08:53;;;;;;;18.00;11.30;;;;;;;20.79;100.00;101370.44;105876;1254;60504;-53
2023/09/15 09:11:23;;;;;;;14.40;11.40;;;;;;;20.75;100.00;101360.29;105828;1257;74197;-53
2023/09/15 09:13:52;;;;;;;17.40;12.20;;;;;;;20.80;100.00;101374.25;105840;1254;64561;-52
2023/09/15 09:16:21;;;;;;;15.40;11.80;;;;;;;20.83;100.00;101374.66;105842;1254;72631;-51
2023/09/15 09:18:57;;;;;;;18.50;12.50;;;;;;;20.79;100.00;101371.31;105845;1253;60526;-53
2023/09/15 09:21:30;;;;;;;20.20;13.70;;;;;;;20.79;100.00;101375.68;105855;1254;60472;-51
2023/09/15 09:24:45;;;;;;;22.20;15.60;;;;;;;20.80;100.00;101407.77;102726;1292;600276;-52
2023/09/15 09:27:13;;;;;;;22.00;15.70;;;;;;;20.79;100.00;101370.61;105089;1270;61489;-52
2023/09/15 09:29:41;;;;;;;25.50;18.30;;;;;;;20.80;100.00;101367.77;105100;1265;59572;-51
2023/09/15 09:32:15;;;;;;;33.00;22.30;;;;;;;20.75;100.00;101363.95;105071;1270;72664;-51
2023/09/15 09:34:49;;;;;;;33.50;22.50;;;;;;;20.70;100.00;101360.85;105043;1269;64764;-51
2023/09/15 09:37:23;;;;;;;39.20;25.80;;;;;;;20.65;100.00;101362.33;104421;1264;832398;-51
2023/09/15 09:39:52;;;;;;;40.10;27.90;;;;;;;20.55;100.00;101355.56;105197;1277;62077;-51
2023/09/15 09:42:24;;;;;;;42.80;29.20;;;;;;;20.57;100.00;101375.11;105157;1264;59451;-52
2023/09/15 09:44:52;;;;;;;42.10;29.60;;;;;;;20.57;100.00;101372.51;105146;1269;70920;-51
2023/09/15 09:47:21;;;;;;;42.00;30.10;;;;;;;20.51;100.00;101378.71;105145;1269;65477;-51
2023/09/15 09:49:51;;;;;;;41.40;30.00;;;;;;;20.46;100.00;101384.94;105144;1268;72342;-51
2023/09/15 09:52:21;;;;;;;37.80;28.40;;;;;;;20.42;100.00;101390.88;105255;1266;60383;-52
2023/09/15 09:54:50;;;;;;;39.20;27.90;;;;;;;20.49;100.00;101397.56;105270;1261;60838;-51
2023/09/15 09:57:19;;;;;;;39.20;27.40;;;;;;;20.55;100.00;101404.14;108932;1260;74861;-51
2023/09/15 09:59:47;;;;;;;41.10;28.60;;;;;;;20.65;100.00;101401.74;108934;1261;64599;-52
2023/09/15 10:02:15;;;;;;;42.00;29.30;;;;;;;20.77;100.00;101402.45;108904;1260;71175;-52
2023/09/15 10:04:43;;;;;;;49.20;30.20;;;;;;;20.87;100.00;101393.58;108949;1260;63539;-53
2023/09/15 10:07:11;;;;;;;54.80;30.60;;;;;;;21.06;100.00;101394.10;108973;1260;59735;-52
2023/09/15 10:09:39;;;;;;;47.50;33.60;;;;;;;21.34;100.00;101394.02;108941;1260;71774;-52
2023/09/15 10:12:07;;;;;;;61.70;32.80;;;;;;;21.49;100.00;101388.33;109023;1261;63820;-52
2023/09/15 10:14:35;;;;;;;53.10;31.50;;;;;;;21.52;100.00;101360.80;108962;1260;72438;-51
2023/09/15 10:17:03;;;;;;;43.90;28.50;;;;;;;21.34;100.00;101315.68;109623;1253;60394;-53
2023/09/15 10:19:31;;;;;;;40.70;27.40;;;;;;;21.03;100.00;101346.17;109591;1253;59927;-52
2023/09/15 10:21:59;;;;;;;36.20;26.60;;;;;;;20.52;100.00;101369.02;109561;1252;74919;-52
2023/09/15 10:24:28;;;;;;;35.30;27.30;;;;;;;20.13;100.00;101404.58;109505;1254;64713;-52
2023/09/15 10:26:56;;;;;;;32.50;25.60;;;;;;;19.84;100.00;101414.92;109586;1252;73302;-52
2023/09/15 10:29:29;;;;;;;35.70;26.70;;;;;;;19.64;100.00;101405.23;109456;1254;61012;-53
2023/09/15 10:31:59;;;;;;;51.50;25.80;;;;;;;19.55;100.00;101387.04;109576;1254;59273;-52
2023/09/15 10:34:26;;;;;;;38.60;27.20;;;;;;;19.52;100.00;101363.35;109631;1254;73030;-52
2023/09/15 10:40:13;;;;;;;27.30;21.60;;;;;;;19.71;100.00;101359.95;102911;1294;600207;-52
2023/09/15 10:42:51;;;;;;;26.30;19.20;;;;;;;19.69;100.00;101336.20;105032;1269;60358;-52
2023/09/15 10:45:19;;;;;;;26.80;19.90;;;;;;;19.73;100.00;101339.39;105082;1269;59282;-53
2023/09/15 10:48:00;;;;;;;18.80;14.90;;;;;;;19.71;100.00;101357.31;105191;1269;72910;-55
2023/09/15 10:50:39;;;;;;;16.90;14.10;;;;;;;19.62;100.00;101390.42;105150;1264;64955;-52
2023/09/15 10:53:11;;;;;;;18.00;13.40;;;;;;;19.57;100.00;101410.75;105022;1260;352703;-52
2023/09/15 10:55:40;;;;;;;16.70;11.60;;;;;;;19.59;100.00;101421.03;105440;1263;61677;-52
2023/09/15 10:58:08;;;;;;;12.70;10.40;;;;;;;19.60;100.00;101433.92;105468;1260;59563;-52
2023/09/15 11:00:36;;;;;;;15.90;10.70;;;;;;;19.64;100.00;101443.73;105438;1258;71931;-52
2023/09/15 11:03:04;;;;;;;12.90;9.20;;;;;;;19.66;100.00;101442.96;105247;1266;64547;-51
2023/09/15 11:05:32;;;;;;;12.00;10.50;;;;;;;19.67;100.00;101448.14;105260;1267;72823;-53
2023/09/15 11:08:00;;;;;;;11.80;9.80;;;;;;;19.72;100.00;101437.83;105229;1268;60458;-51
2023/09/15 11:10:34;;;;;;;12.50;10.40;;;;;;;19.74;100.00;101418.98;105365;1258;61947;-51
2023/09/15 11:13:03;;;;;;;14.40;10.00;;;;;;;19.66;100.00;101355.42;105468;1263;73046;-51
2023/09/15 11:15:32;;;;;;;11.70;8.20;;;;;;;19.61;100.00;101337.28;105413;1263;64833;-52
2023/09/15 11:17:59;;;;;;;9.40;7.80;;;;;;;19.60;100.00;101338.72;105424;1264;72237;-52
2023/09/15 11:20:27;;;;;;;10.80;8.20;;;;;;;19.59;100.00;101321.94;105554;1261;60430;-52
2023/09/15 11:22:56;;;;;;;15.80;10.90;;;;;;;19.60;100.00;101317.34;105390;1258;60484;-53
2023/09/15 11:25:24;;;;;;;15.90;10.90;;;;;;;19.74;100.00;101335.13;105517;1262;73454;-51